Time;durP1;ratioP1;P1;durP2;ratioP2;P2;SDS_P1;SDS_P2;PMS_P1;PMS_P2;Temp;Humidity;BMP_temperature;BMP_pressure;BME280_temperature;BME280_humidity;BME280_pressure;Samples;Min_cycle;Max_cycle;Signal;HPM_P1;HPM_P2
2023/05/04 00:01:10;;;;;;;5.82;5.20;;;19.20;1.00;;;;;;5032068;28;20033;-71
2023/05/04 00:03:38;;;;;;;4.85;4.45;;;19.30;1.00;;;;;;5032226;28;20065;-70
2023/05/04 00:06:04;;;;;;;5.63;4.95;;;19.20;1.00;;;;;;5046871;28;20091;-70
2023/05/04 00:08:30;;;;;;;7.82;4.90;;;19.30;1.00;;;;;;5032004;28;20434;-71
2023/05/04 00:10:56;;;;;;;5.82;4.57;;;19.20;1.00;;;;;;5032799;28;20033;-70
2023/05/04 00:13:21;;;;;;;5.53;5.03;;;19.20;1.00;;;;;;5031158;28;20033;-71
2023/05/04 00:15:47;;;;;;;5.80;5.18;;;19.20;1.00;;;;;;5026389;28;20033;-70
2023/05/04 00:18:13;;;;;;;6.20;4.88;;;19.10;1.00;;;;;;5030978;28;20044;-70
2023/05/04 00:20:38;;;;;;;4.65;4.25;;;19.10;1.00;;;;;;5039845;28;20094;-70
2023/05/04 00:23:04;;;;;;;5.13;4.50;;;19.20;1.00;;;;;;5044394;28;20045;-70
2023/05/04 00:25:29;;;;;;;5.15;4.75;;;19.20;1.00;;;;;;5036037;28;20064;-70
2023/05/04 00:27:55;;;;;;;5.25;4.82;;;19.20;1.00;;;;;;5036101;28;20594;-71
2023/05/04 00:30:21;;;;;;;5.07;4.63;;;19.20;1.00;;;;;;5036597;28;20518;-70
2023/05/04 00:32:47;;;;;;;5.35;4.85;;;19.20;1.00;;;;;;5034834;28;20025;-71
2023/05/04 00:35:12;;;;;;;6.43;5.82;;;19.20;1.00;;;;;;5036161;28;20495;-71
2023/05/04 00:37:38;;;;;;;6.13;5.63;;;19.20;1.00;;;;;;5034954;28;20049;-70
2023/05/04 00:40:04;;;;;;;9.18;5.68;;;19.20;1.00;;;;;;5035636;28;20116;-70
2023/05/04 00:42:30;;;;;;;5.97;5.47;;;19.20;1.00;;;;;;5036857;28;20364;-71
2023/05/04 00:44:56;;;;;;;5.95;5.45;;;19.20;1.00;;;;;;5034167;28;20045;-70
2023/05/04 00:47:22;;;;;;;6.07;5.53;;;19.10;1.00;;;;;;5034310;28;20044;-70
2023/05/04 00:49:49;;;;;;;6.65;6.05;;;19.10;1.00;;;;;;5036391;28;20034;-71
2023/05/04 00:52:16;;;;;;;5.78;5.28;;;19.20;1.00;;;;;;5035337;28;20096;-70
2023/05/04 00:54:43;;;;;;;6.78;6.05;;;19.20;1.00;;;;;;5036334;28;20124;-70
2023/05/04 00:57:09;;;;;;;6.50;5.90;;;19.20;1.00;;;;;;5038548;28;20471;-70
2023/05/04 00:59:34;;;;;;;7.85;6.28;;;19.10;1.00;;;;;;5051902;28;20086;-70
2023/05/04 01:02:00;;;;;;;7.18;6.57;;;19.10;1.00;;;;;;5041990;28;20112;-70
2023/05/04 01:04:26;;;;;;;6.97;6.38;;;19.10;1.00;;;;;;5037521;28;20499;-70
2023/05/04 01:07:04;;;;;;;6.90;6.20;;;19.10;1.00;;;;;;5036050;28;20460;-71
2023/05/04 01:09:38;;;;;;;7.38;6.60;;;19.10;1.00;;;;;;5034301;28;20037;-70
2023/05/04 01:12:07;;;;;;;7.07;6.47;;;19.10;1.00;;;;;;5042936;28;20025;-70
2023/05/04 01:14:36;;;;;;;6.75;6.00;;;19.10;1.00;;;;;;5035770;28;20025;-70
2023/05/04 01:17:06;;;;;;;9.02;6.47;;;19.10;1.00;;;;;;5029714;28;20499;-70
2023/05/04 01:19:33;;;;;;;7.07;6.40;;;19.10;1.00;;;;;;5035567;28;20037;-70
2023/05/04 01:21:59;;;;;;;6.70;6.07;;;19.10;1.00;;;;;;5029222;28;20048;-70
2023/05/04 01:24:26;;;;;;;7.43;6.72;;;19.10;1.00;;;;;;5035767;28;20471;-69
2023/05/04 01:27:03;;;;;;;6.80;5.93;;;19.10;1.00;;;;;;5035041;28;20059;-70
2023/05/04 01:29:41;;;;;;;7.18;6.50;;;19.10;1.00;;;;;;5035575;28;20459;-70
2023/05/04 01:32:07;;;;;;;7.85;7.05;;;19.00;1.00;;;;;;5034732;28;20014;-70
2023/05/04 01:34:34;;;;;;;7.72;6.68;;;19.00;1.00;;;;;;5032028;28;20121;-70
2023/05/04 01:37:00;;;;;;;7.40;6.75;;;19.00;1.00;;;;;;5035551;28;20030;-71
2023/05/04 01:39:26;;;;;;;7.85;6.60;;;19.10;1.00;;;;;;5034551;28;20054;-70
2023/05/04 01:41:52;;;;;;;6.10;5.50;;;19.10;1.00;;;;;;5034724;28;20033;-70
2023/05/04 01:44:19;;;;;;;6.57;6.00;;;19.00;1.00;;;;;;5035311;28;20458;-70
2023/05/04 01:46:44;;;;;;;7.60;6.78;;;19.00;1.00;;;;;;5034692;28;20033;-70
2023/05/04 01:49:10;;;;;;;7.22;6.53;;;19.10;1.00;;;;;;5034477;28;20475;-70
2023/05/04 01:51:36;;;;;;;6.35;5.75;;;18.90;1.00;;;;;;5035312;28;20029;-70
2023/05/04 01:54:01;;;;;;;7.20;6.60;;;18.90;1.00;;;;;;5034018;28;20044;-70
2023/05/04 01:56:27;;;;;;;7.18;6.53;;;18.90;1.00;;;;;;5035193;28;20113;-70
2023/05/04 01:58:52;;;;;;;7.38;6.78;;;19.00;1.00;;;;;;5034376;28;20364;-70
2023/05/04 02:01:18;;;;;;;7.07;6.47;;;18.90;1.00;;;;;;5035139;28;20033;-70
2023/05/04 02:03:44;;;;;;;6.88;6.30;;;18.90;1.00;;;;;;5033732;28;20030;-70
2023/05/04 02:06:10;;;;;;;8.63;7.78;;;18.90;1.00;;;;;;5034955;28;20029;-70
2023/05/04 02:08:35;;;;;;;7.53;6.93;;;18.90;1.00;;;;;;5034231;28;20022;-70
2023/05/04 02:11:01;;;;;;;9.07;7.38;;;18.90;1.00;;;;;;5035000;28;20025;-70
2023/05/04 02:13:26;;;;;;;7.80;7.03;;;18.90;1.00;;;;;;5034186;28;20508;-70
2023/05/04 02:15:52;;;;;;;7.75;7.10;;;18.80;1.00;;;;;;5034774;28;20038;-70
2023/05/04 02:18:18;;;;;;;8.68;6.93;;;18.90;1.00;;;;;;5034202;28;20615;-70
2023/05/04 02:20:43;;;;;;;8.00;7.20;;;18.80;1.00;;;;;;5034785;28;20063;-70
2023/05/04 02:23:09;;;;;;;7.38;6.68;;;18.80;1.00;;;;;;5033825;28;20043;-70
2023/05/04 02:25:37;;;;;;;7.60;6.93;;;18.80;1.00;;;;;;5034005;28;20030;-70
2023/05/04 02:28:03;;;;;;;8.95;7.15;;;18.90;1.00;;;;;;5039299;28;20022;-70
2023/05/04 02:30:29;;;;;;;7.70;7.10;;;18.80;1.00;;;;;;5034396;28;20087;-70
2023/05/04 02:32:54;;;;;;;9.23;8.25;;;18.70;1.00;;;;;;5033417;28;20030;-70
2023/05/04 02:35:20;;;;;;;7.57;6.93;;;18.80;1.00;;;;;;5033760;28;20083;-70
2023/05/04 02:37:45;;;;;;;7.40;6.70;;;18.80;1.00;;;;;;5033574;28;20022;-70
2023/05/04 02:40:12;;;;;;;7.88;7.18;;;18.80;1.00;;;;;;5033966;28;20572;-69
2023/05/04 02:42:37;;;;;;;7.63;6.97;;;18.80;1.00;;;;;;5033693;28;20503;-70
2023/05/04 02:45:03;;;;;;;8.07;7.35;;;18.80;1.00;;;;;;5031739;28;20120;-69
2023/05/04 02:47:29;;;;;;;8.10;7.40;;;18.80;1.00;;;;;;5034158;28;20096;-70
2023/05/04 02:49:55;;;;;;;7.78;7.07;;;18.80;1.00;;;;;;5033599;28;20044;-69
2023/05/04 02:52:20;;;;;;;8.45;7.70;;;18.80;1.00;;;;;;5033177;28;20037;-70
2023/05/04 02:54:46;;;;;;;8.50;7.70;;;18.80;1.00;;;;;;5028130;28;20084;-69
2023/05/04 02:57:11;;;;;;;8.13;7.43;;;18.80;1.00;;;;;;5033608;28;20474;-69
2023/05/04 02:59:37;;;;;;;7.78;7.18;;;18.70;1.00;;;;;;5033040;28;20517;-69
2023/05/04 03:02:03;;;;;;;8.07;7.35;;;18.80;1.00;;;;;;5033092;28;20032;-69
2023/05/04 03:04:28;;;;;;;8.50;7.80;;;18.70;1.00;;;;;;5032443;28;20375;-69
2023/05/04 03:06:54;;;;;;;8.18;7.47;;;18.70;1.00;;;;;;5033904;28;20018;-69
2023/05/04 03:09:20;;;;;;;9.60;7.68;;;18.70;1.00;;;;;;5033313;28;20037;-70
2023/05/04 03:11:45;;;;;;;8.38;7.65;;;18.70;1.00;;;;;;5033858;28;20438;-70
2023/05/04 03:14:11;;;;;;;9.27;8.48;;;18.70;1.00;;;;;;5033098;28;20108;-69
2023/05/04 03:16:36;;;;;;;9.00;8.20;;;18.70;1.00;;;;;;5033643;28;20471;-69
2023/05/04 03:19:02;;;;;;;8.63;7.75;;;18.60;1.00;;;;;;5032738;28;20034;-70
2023/05/04 03:21:28;;;;;;;9.23;8.20;;;18.60;1.00;;;;;;5033617;28;20030;-69
2023/05/04 03:23:53;;;;;;;9.60;8.75;;;18.60;1.00;;;;;;5033046;28;20095;-70
2023/05/04 03:26:20;;;;;;;10.43;9.52;;;18.70;1.00;;;;;;5033469;28;20087;-70
2023/05/04 03:28:45;;;;;;;9.85;8.43;;;18.70;1.00;;;;;;5031420;28;20390;-70
2023/05/04 03:31:11;;;;;;;7.93;7.20;;;18.60;1.00;;;;;;5033658;28;20198;-70
2023/05/04 03:33:37;;;;;;;9.00;8.20;;;18.60;1.00;;;;;;5031911;28;20022;-69
2023/05/04 03:36:02;;;;;;;7.93;7.22;;;18.60;1.00;;;;;;5032538;28;20026;-70
2023/05/04 03:38:28;;;;;;;8.90;8.10;;;18.60;1.00;;;;;;5032192;28;20107;-69
2023/05/04 03:40:54;;;;;;;7.60;6.90;;;18.60;1.00;;;;;;5033288;28;20037;-69
2023/05/04 03:43:19;;;;;;;7.90;7.20;;;18.60;1.00;;;;;;5022376;28;20025;-69
2023/05/04 03:45:45;;;;;;;9.45;8.75;;;18.60;1.00;;;;;;5030418;28;20463;-69
2023/05/04 03:48:11;;;;;;;8.80;8.00;;;18.50;1.00;;;;;;5032452;28;20072;-69
2023/05/04 03:50:36;;;;;;;9.43;8.65;;;18.50;1.00;;;;;;5033134;28;20124;-69
2023/05/04 03:53:02;;;;;;;9.80;8.90;;;18.50;1.00;;;;;;5032742;28;20032;-69
2023/05/04 03:55:28;;;;;;;9.38;8.48;;;18.50;1.00;;;;;;5030999;28;20112;-70
2023/05/04 03:57:53;;;;;;;10.13;9.23;;;18.50;1.00;;;;;;5032266;28;20121;-70
2023/05/04 04:00:19;;;;;;;9.50;8.63;;;18.50;1.00;;;;;;5025598;28;20117;-70
2023/05/04 04:02:44;;;;;;;10.38;9.20;;;18.40;1.00;;;;;;5060705;28;20047;-70
2023/05/04 04:05:10;;;;;;;10.68;8.77;;;18.50;1.00;;;;;;5033062;28;20026;-70
2023/05/04 04:07:36;;;;;;;9.27;8.48;;;18.50;1.00;;;;;;5031129;28;20036;-70
2023/05/04 04:10:01;;;;;;;10.40;9.35;;;18.50;1.00;;;;;;5033003;28;20382;-69
2023/05/04 04:12:27;;;;;;;9.55;8.52;;;18.40;1.00;;;;;;5032272;28;20037;-70
2023/05/04 04:14:52;;;;;;;10.18;9.18;;;18.50;1.00;;;;;;5032831;28;20036;-70
2023/05/04 04:17:18;;;;;;;9.02;8.23;;;18.50;1.00;;;;;;5039714;28;20057;-70
2023/05/04 04:19:44;;;;;;;10.15;8.98;;;18.50;1.00;;;;;;5032691;28;20037;-70
2023/05/04 04:22:09;;;;;;;10.32;9.43;;;18.50;1.00;;;;;;5032219;28;20026;-70
2023/05/04 04:24:35;;;;;;;9.30;7.95;;;18.50;1.00;;;;;;5033196;28;20060;-69
2023/05/04 04:27:01;;;;;;;10.02;9.02;;;18.50;1.00;;;;;;5031878;28;20029;-70
2023/05/04 04:29:26;;;;;;;11.02;9.75;;;18.50;1.00;;;;;;5032194;28;20034;-70
2023/05/04 04:31:52;;;;;;;10.40;9.50;;;18.50;1.00;;;;;;5032534;28;20030;-70
2023/05/04 04:34:18;;;;;;;10.82;9.13;;;18.50;1.00;;;;;;5031786;28;20025;-69
2023/05/04 04:36:44;;;;;;;10.23;8.35;;;18.50;1.00;;;;;;5031258;28;20442;-69
2023/05/04 04:39:10;;;;;;;9.93;8.95;;;18.50;1.00;;;;;;5037528;28;20041;-69
2023/05/04 04:41:36;;;;;;;8.98;8.18;;;18.60;1.00;;;;;;5032665;28;20034;-69
2023/05/04 04:44:02;;;;;;;8.27;7.53;;;18.60;1.00;;;;;;5032035;28;20081;-69
2023/05/04 04:46:28;;;;;;;7.90;7.20;;;18.50;1.00;;;;;;5032620;28;20060;-69
2023/05/04 04:48:54;;;;;;;8.63;7.82;;;18.50;1.00;;;;;;5031822;28;20018;-70
2023/05/04 04:51:20;;;;;;;9.40;7.70;;;18.50;1.00;;;;;;5032870;28;20033;-69
2023/05/04 04:53:45;;;;;;;9.13;8.00;;;18.50;1.00;;;;;;5030377;28;20025;-70
2023/05/04 04:56:11;;;;;;;9.23;8.32;;;18.60;1.00;;;;;;5031904;28;20060;-70
2023/05/04 04:58:37;;;;;;;8.43;7.63;;;18.50;1.00;;;;;;5032657;28;20034;-70
2023/05/04 05:01:03;;;;;;;8.80;7.18;;;18.60;1.00;;;;;;5030343;28;20021;-70
2023/05/04 05:03:30;;;;;;;9.38;7.90;;;18.70;1.00;;;;;;5032571;28;20112;-70
2023/05/04 05:05:55;;;;;;;8.73;7.68;;;18.70;1.00;;;;;;5031877;28;20143;-70
2023/05/04 05:08:22;;;;;;;9.20;8.30;;;18.70;1.00;;;;;;5033929;28;20471;-70
2023/05/04 05:10:47;;;;;;;8.25;7.55;;;18.70;1.00;;;;;;5036129;28;20057;-71
2023/05/04 05:13:13;;;;;;;8.05;7.25;;;18.70;1.00;;;;;;5034228;28;20057;-71
2023/05/04 05:15:39;;;;;;;11.15;8.18;;;18.70;1.00;;;;;;5036080;28;20029;-71
2023/05/04 05:18:04;;;;;;;8.75;7.95;;;18.70;1.00;;;;;;5033914;28;20029;-71
2023/05/04 05:20:30;;;;;;;8.30;7.50;;;18.70;1.00;;;;;;5036292;28;20127;-71
2023/05/04 05:22:56;;;;;;;7.93;7.22;;;18.70;1.00;;;;;;5035141;28;20022;-71
2023/05/04 05:25:22;;;;;;;7.82;7.05;;;18.60;1.00;;;;;;5035671;28;20134;-71
2023/05/04 05:27:48;;;;;;;8.85;7.93;;;18.70;1.00;;;;;;5037694;28;20383;-71
2023/05/04 05:30:14;;;;;;;9.75;7.60;;;18.70;1.00;;;;;;5035860;28;20040;-70
2023/05/04 05:32:40;;;;;;;9.55;7.50;;;18.70;1.00;;;;;;5035058;28;20108;-71
2023/05/04 05:35:06;;;;;;;8.25;7.47;;;18.70;1.00;;;;;;5035524;28;20172;-71
2023/05/04 05:37:32;;;;;;;8.48;7.60;;;18.70;1.00;;;;;;5034430;28;20491;-71
2023/05/04 05:39:58;;;;;;;8.10;7.30;;;18.70;1.00;;;;;;5035437;28;20045;-71
2023/05/04 05:42:23;;;;;;;8.93;8.07;;;18.80;1.00;;;;;;5034009;28;20825;-71
2023/05/04 05:44:49;;;;;;;9.45;8.02;;;18.80;1.00;;;;;;5035599;28;20021;-70
2023/05/04 05:47:16;;;;;;;8.77;7.88;;;18.80;1.00;;;;;;5032056;28;20029;-70
2023/05/04 05:49:41;;;;;;;9.70;8.25;;;18.90;1.00;;;;;;5035378;28;20029;-70
2023/05/04 05:52:07;;;;;;;7.88;7.18;;;18.90;1.00;;;;;;5034811;28;20017;-70
2023/05/04 05:54:34;;;;;;;8.57;7.78;;;18.90;1.00;;;;;;5035230;28;20438;-70
2023/05/04 05:57:00;;;;;;;9.38;8.40;;;19.00;1.00;;;;;;5034093;28;20093;-69
2023/05/04 05:59:26;;;;;;;9.00;7.68;;;19.00;1.00;;;;;;5033567;28;20593;-68
2023/05/04 06:01:52;;;;;;;7.85;7.15;;;19.00;1.00;;;;;;5041895;28;20112;-69
2023/05/04 06:04:17;;;;;;;7.70;7.00;;;19.00;1.00;;;;;;5032821;28;20056;-69
2023/05/04 06:06:43;;;;;;;9.98;8.05;;;19.10;1.00;;;;;;5034689;28;20561;-69
2023/05/04 06:09:09;;;;;;;7.30;6.65;;;19.00;1.00;;;;;;5033529;28;20036;-69
2023/05/04 06:11:35;;;;;;;7.57;6.88;;;19.10;1.00;;;;;;5034323;28;20025;-69
2023/05/04 06:14:00;;;;;;;9.35;6.05;;;19.10;1.00;;;;;;5048136;28;20032;-69
2023/05/04 06:16:26;;;;;;;7.35;6.60;;;19.20;1.00;;;;;;5034883;28;20021;-69
2023/05/04 06:18:52;;;;;;;6.85;6.15;;;19.20;1.00;;;;;;5032131;28;20378;-69
2023/05/04 06:21:17;;;;;;;7.03;6.20;;;19.30;1.00;;;;;;5033965;28;20467;-69
2023/05/04 06:23:43;;;;;;;7.63;5.95;;;19.30;1.00;;;;;;5033430;28;20030;-69
2023/05/04 06:26:09;;;;;;;7.93;5.22;;;19.40;1.00;;;;;;5034518;28;20029;-69
2023/05/04 06:28:34;;;;;;;5.93;5.18;;;19.40;1.00;;;;;;5033158;28;20075;-69
2023/05/04 06:31:01;;;;;;;8.68;5.50;;;19.50;1.00;;;;;;5033739;28;20040;-69
2023/05/04 06:33:27;;;;;;;5.80;5.30;;;19.60;1.00;;;;;;5034563;28;20175;-69
2023/05/04 06:35:53;;;;;;;9.18;5.40;;;19.60;1.00;;;;;;5033742;28;20076;-69
2023/05/04 06:38:18;;;;;;;5.63;3.78;;;19.60;1.00;;;;;;5034253;28;20534;-66
2023/05/04 06:40:44;;;;;;;6.28;3.75;;;19.60;1.00;;;;;;5033704;28;20025;-69
2023/05/04 06:43:10;;;;;;;4.13;3.05;;;19.60;1.00;;;;;;5033364;28;20044;-69
2023/05/04 06:45:36;;;;;;;5.28;2.95;;;19.60;1.00;;;;;;5034502;28;20428;-69
2023/05/04 06:48:03;;;;;;;5.10;2.75;;;19.60;1.00;;;;;;5032613;28;20035;-69
2023/05/04 06:50:29;;;;;;;3.70;2.50;;;19.70;1.00;;;;;;5033540;28;20507;-69
2023/05/04 06:53:09;;;;;;;4.18;3.13;;;19.80;1.00;;;;;;5033375;28;20030;-69
2023/05/04 06:55:36;;;;;;;6.78;3.85;;;19.80;1.00;;;;;;5034420;28;20038;-69
2023/05/04 06:58:02;;;;;;;4.18;3.75;;;19.80;1.00;;;;;;5032714;28;20387;-69
2023/05/04 07:00:28;;;;;;;4.82;3.80;;;19.80;1.00;;;;;;5033922;28;20042;-69
2023/05/04 07:02:53;;;;;;;5.70;5.20;;;19.90;1.00;;;;;;5033370;28;20025;-69
2023/05/04 07:05:23;;;;;;;7.10;5.40;;;19.90;1.00;;;;;;5032810;28;20113;-69
2023/05/04 07:07:49;;;;;;;8.23;5.13;;;19.90;1.00;;;;;;5033378;28;20364;-69
2023/05/04 07:10:15;;;;;;;5.15;3.63;;;20.00;1.00;;;;;;5032246;28;20029;-69
2023/05/04 07:12:41;;;;;;;4.03;2.90;;;20.00;1.00;;;;;;5033809;28;20029;-63
2023/05/04 07:15:08;;;;;;;2.70;2.50;;;19.90;1.00;;;;;;5033102;28;20060;-62
2023/05/04 07:17:35;;;;;;;4.10;2.88;;;19.80;1.00;;;;;;5033258;28;20033;-60
2023/05/04 07:20:04;;;;;;;4.47;3.30;;;19.80;1.00;;;;;;5034121;28;20038;-60
2023/05/04 07:22:30;;;;;;;3.03;2.83;;;19.80;1.00;;;;;;5032662;28;20086;-61
2023/05/04 07:24:57;;;;;;;3.30;3.00;;;19.80;1.00;;;;;;5027979;28;20476;-60
2023/05/04 07:27:22;;;;;;;5.68;3.50;;;20.00;1.00;;;;;;5031977;28;20029;-62
2023/05/04 07:29:49;;;;;;;4.68;3.90;;;20.00;1.00;;;;;;5033431;28;20163;-64
2023/05/04 07:32:15;;;;;;;4.85;3.45;;;20.00;1.00;;;;;;5032558;28;20025;-59
2023/05/04 07:34:42;;;;;;;3.83;3.42;;;20.00;1.00;;;;;;5033297;28;20472;-60
2023/05/04 07:37:08;;;;;;;4.75;4.35;;;20.00;1.00;;;;;;5032690;28;20026;-60
2023/05/04 07:39:35;;;;;;;7.50;4.38;;;20.10;1.00;;;;;;5032662;28;20054;-60
2023/05/04 07:42:02;;;;;;;5.07;3.88;;;20.10;1.00;;;;;;5031289;28;20056;-60
2023/05/04 07:44:28;;;;;;;5.40;3.95;;;20.20;1.00;;;;;;5033410;28;20029;-63
2023/05/04 07:46:54;;;;;;;6.13;4.57;;;20.20;1.00;;;;;;5031537;28;20024;-65
2023/05/04 07:49:20;;;;;;;5.45;4.03;;;20.20;1.00;;;;;;5033009;28;20083;-68
2023/05/04 07:51:45;;;;;;;3.20;2.92;;;20.20;1.00;;;;;;5042183;28;20029;-69
2023/05/04 07:54:11;;;;;;;7.15;6.47;;;20.10;1.00;;;;;;5033322;28;20087;-67
2023/05/04 07:56:37;;;;;;;7.50;6.13;;;20.10;1.00;;;;;;5032511;28;20021;-66
2023/05/04 07:59:02;;;;;;;10.32;4.32;;;20.10;1.00;;;;;;5031113;28;20087;-66
2023/05/04 08:01:28;;;;;;;4.35;3.92;;;20.10;1.00;;;;;;5033109;28;20032;-71
2023/05/04 08:03:54;;;;;;;5.97;3.90;;;20.00;1.00;;;;;;5032308;28;20025;-71
2023/05/04 08:06:20;;;;;;;7.45;3.85;;;20.10;1.00;;;;;;5032967;28;20018;-64
2023/05/04 08:08:48;;;;;;;4.03;3.47;;;20.00;1.00;;;;;;5031755;28;20033;-63
2023/05/04 08:11:14;;;;;;;5.07;3.78;;;19.90;1.00;;;;;;5032879;28;20057;-63
2023/05/04 08:13:40;;;;;;;3.65;3.35;;;19.90;1.00;;;;;;5031937;28;20018;-62
2023/05/04 08:16:08;;;;;;;6.13;5.65;;;19.90;1.00;;;;;;5032810;28;20026;-72
2023/05/04 08:18:33;;;;;;;5.43;4.90;;;19.80;1.00;;;;;;5030399;28;20063;-72
2023/05/04 08:20:59;;;;;;;7.68;5.95;;;19.80;1.00;;;;;;5032046;28;20029;-77
2023/05/04 08:23:24;;;;;;;7.22;5.22;;;19.80;1.00;;;;;;5023984;28;20033;-54
2023/05/04 08:25:51;;;;;;;6.05;5.45;;;19.90;1.00;;;;;;5032526;28;20488;-69
2023/05/04 08:28:17;;;;;;;39.00;8.32;;;19.90;1.00;;;;;;5031985;28;20022;-67
2023/05/04 08:30:43;;;;;;;9.68;6.07;;;19.90;1.00;;;;;;5032650;28;20029;-72
2023/05/04 08:33:08;;;;;;;125.55;21.23;;;19.90;1.00;;;;;;5031244;28;20424;-64
2023/05/04 08:35:34;;;;;;;61.10;12.90;;;19.90;1.00;;;;;;5030845;28;20507;-68
2023/05/04 08:38:00;;;;;;;321.20;58.53;;;20.00;1.00;;;;;;5031160;28;20029;-65
2023/05/04 08:40:26;;;;;;;177.52;33.83;;;20.00;1.00;;;;;;5030623;28;20057;-73
2023/05/04 08:42:52;;;;;;;58.03;14.23;;;20.10;1.00;;;;;;5033726;28;20028;-69
2023/05/04 08:45:18;;;;;;;177.38;31.17;;;20.10;1.00;;;;;;5034669;28;20017;-68
2023/05/04 08:47:44;;;;;;;46.00;9.32;;;20.10;1.00;;;;;;5034372;28;20078;-64
2023/05/04 08:50:11;;;;;;;14.38;5.18;;;20.10;1.00;;;;;;5035584;28;20395;-63
2023/05/04 08:52:42;;;;;;;8.57;5.00;;;20.20;1.00;;;;;;5035553;28;20033;-63
2023/05/04 08:55:11;;;;;;;7.53;5.13;;;20.20;1.00;;;;;;5034972;28;20132;-65
2023/05/04 08:57:38;;;;;;;12.70;4.43;;;20.20;1.00;;;;;;5036545;28;20382;-65
2023/05/04 09:00:05;;;;;;;5.35;4.43;;;20.30;1.00;;;;;;5034591;28;20033;-65
2023/05/04 09:02:32;;;;;;;5.22;4.32;;;20.30;1.00;;;;;;5036377;28;20113;-66
2023/05/04 09:05:00;;;;;;;14.02;5.32;;;20.30;1.00;;;;;;5024344;28;20400;-64
2023/05/04 09:07:26;;;;;;;106.10;18.85;;;20.30;1.00;;;;;;5033140;28;20036;-65
2023/05/04 09:09:51;;;;;;;9.65;5.22;;;20.30;1.00;;;;;;5036045;28;20033;-65
2023/05/04 09:12:18;;;;;;;7.43;4.55;;;20.40;1.00;;;;;;5034791;28;20064;-63
2023/05/04 09:14:45;;;;;;;4.32;3.95;;;20.40;1.00;;;;;;5034354;28;20049;-63
2023/05/04 09:17:26;;;;;;;11.85;4.88;;;20.40;1.00;;;;;;5034038;28;20523;-72
2023/05/04 09:20:02;;;;;;;11.32;4.10;;;20.50;1.00;;;;;;5027079;28;20053;-62
2023/05/04 09:22:29;;;;;;;4.65;3.67;;;20.50;1.00;;;;;;5022155;28;20030;-73
2023/05/04 09:25:24;;;;;;;3.58;3.30;;;20.60;1.00;;;;;;5034365;28;20036;-61
2023/05/04 09:27:53;;;;;;;3.80;3.50;;;20.60;1.00;;;;;;5031416;28;20033;-62
2023/05/04 09:30:22;;;;;;;3.40;3.10;;;20.70;1.00;;;;;;5034741;28;20505;-62
2023/05/04 09:32:48;;;;;;;3.83;3.28;;;20.70;1.00;;;;;;5034479;28;20407;-62
2023/05/04 09:35:15;;;;;;;4.38;2.65;;;20.80;1.00;;;;;;5034173;28;20087;-59
2023/05/04 09:37:45;;;;;;;11.30;4.63;;;20.80;1.00;;;;;;5034698;28;20033;-57
2023/05/04 09:40:12;;;;;;;58.88;11.40;;;20.90;1.00;;;;;;5034335;28;20045;-58
2023/05/04 09:42:38;;;;;;;9.45;5.20;;;20.80;1.00;;;;;;5035101;28;20097;-59
2023/05/04 09:45:09;;;;;;;22.83;6.90;;;20.90;1.00;;;;;;5033675;28;20061;-59
2023/05/04 09:47:38;;;;;;;6.65;5.10;;;21.00;1.00;;;;;;5022021;28;20489;-53
2023/05/04 09:50:16;;;;;;;6.93;5.60;;;21.10;1.00;;;;;;5033727;28;20071;-62
2023/05/04 09:52:43;;;;;;;5.47;5.00;;;21.20;1.00;;;;;;5024702;28;20034;-54
2023/05/04 09:55:13;;;;;;;5.85;4.93;;;21.10;1.00;;;;;;5033706;28;20067;-64
2023/05/04 09:57:43;;;;;;;6.63;4.90;;;21.30;1.00;;;;;;5034378;28;20021;-64
2023/05/04 10:00:15;;;;;;;4.95;4.55;;;21.40;1.00;;;;;;5029126;28;20107;-55
2023/05/04 10:02:42;;;;;;;4.40;4.10;;;21.50;1.00;;;;;;5029028;28;20022;-58
2023/05/04 10:05:09;;;;;;;7.25;5.05;;;21.50;1.00;;;;;;5032363;28;20029;-71
2023/05/04 10:07:36;;;;;;;5.03;4.22;;;21.50;1.00;;;;;;5025373;28;20379;-73
2023/05/04 10:10:02;;;;;;;5.03;4.50;;;21.50;1.00;;;;;;5035001;28;20148;-72
2023/05/04 10:12:28;;;;;;;4.60;4.10;;;21.50;1.00;;;;;;5034025;28;20144;-72
2023/05/04 10:14:54;;;;;;;6.25;4.63;;;21.60;1.00;;;;;;5034581;28;20127;-60
2023/05/04 10:17:40;;;;;;;4.88;4.25;;;21.70;1.00;;;;;;5033000;28;20110;-60
2023/05/04 10:20:28;;;;;;;5.93;5.28;;;21.70;1.00;;;;;;5026979;28;20120;-60
2023/05/04 10:23:03;;;;;;;5.93;3.90;;;21.80;1.00;;;;;;5022031;28;20037;-60
2023/05/04 10:25:29;;;;;;;7.28;5.32;;;21.90;1.00;;;;;;5033097;28;20041;-60
2023/05/04 10:28:13;;;;;;;4.03;3.70;;;22.00;1.00;;;;;;5032865;28;20108;-60
2023/05/04 10:30:39;;;;;;;5.57;5.07;;;22.10;1.00;;;;;;5033890;28;20033;-60
2023/05/04 10:33:05;;;;;;;5.63;5.22;;;22.20;1.00;;;;;;5036554;28;20025;-60
2023/05/04 10:35:31;;;;;;;7.43;4.80;;;22.30;1.00;;;;;;5045993;28;20022;-60
2023/05/04 10:37:57;;;;;;;5.60;5.10;;;22.40;1.00;;;;;;5040918;28;20529;-60
2023/05/04 10:40:36;;;;;;;6.82;6.20;;;22.40;1.00;;;;;;5039523;28;20054;-60
2023/05/04 10:43:02;;;;;;;7.53;6.88;;;22.50;1.00;;;;;;5021853;28;20024;-60
2023/05/04 10:45:41;;;;;;;7.10;6.40;;;22.60;1.00;;;;;;5033844;28;20082;-60
2023/05/04 10:48:08;;;;;;;6.88;6.38;;;22.60;1.00;;;;;;5021554;28;20095;-60
2023/05/04 10:50:48;;;;;;;7.45;6.72;;;22.70;1.00;;;;;;5043414;28;20025;-60
2023/05/04 10:53:17;;;;;;;6.60;5.75;;;22.80;1.00;;;;;;5048696;28;20109;-60
2023/05/04 10:55:47;;;;;;;6.72;5.85;;;22.90;1.00;;;;;;5051268;28;20383;-60
2023/05/04 10:58:15;;;;;;;6.70;6.13;;;22.90;1.00;;;;;;5046141;28;20109;-60
2023/05/04 11:00:50;;;;;;;8.05;7.35;;;22.90;1.00;;;;;;5048871;28;20032;-60
2023/05/04 11:03:16;;;;;;;7.45;6.72;;;23.00;1.00;;;;;;5049795;28;20116;-60
2023/05/04 11:05:46;;;;;;;7.45;6.68;;;23.20;1.00;;;;;;5045675;28;20513;-60
2023/05/04 11:08:18;;;;;;;8.35;6.88;;;23.30;1.00;;;;;;5041860;28;20383;-60
2023/05/04 11:10:46;;;;;;;31.88;11.15;;;23.50;1.00;;;;;;5043070;28;20028;-60
2023/05/04 11:13:12;;;;;;;11.80;8.73;;;23.60;1.00;;;;;;5045409;28;20475;-60
2023/05/04 11:15:47;;;;;;;10.23;9.23;;;23.60;1.00;;;;;;5027613;28;20032;-60
2023/05/04 11:18:14;;;;;;;9.70;7.80;;;23.60;1.00;;;;;;5035293;28;20033;-60
2023/05/04 11:20:41;;;;;;;9.10;7.93;;;23.70;1.00;;;;;;5034452;28;20038;-60
2023/05/04 11:23:09;;;;;;;11.23;7.88;;;23.80;1.00;;;;;;5035816;28;20028;-60
2023/05/04 11:25:36;;;;;;;9.88;8.10;;;23.90;1.00;;;;;;5025415;28;20017;-60
2023/05/04 11:28:02;;;;;;;10.15;8.82;;;24.10;1.00;;;;;;5035326;28;20028;-60
2023/05/04 11:30:35;;;;;;;8.30;7.13;;;24.10;1.00;;;;;;5036521;28;20037;-60
2023/05/04 11:33:03;;;;;;;9.77;8.85;;;24.10;1.00;;;;;;5035571;28;20017;-60
2023/05/04 11:35:29;;;;;;;8.88;8.07;;;24.40;1.00;;;;;;5037517;28;20418;-60
2023/05/04 11:37:55;;;;;;;8.98;7.97;;;24.40;1.00;;;;;;5041476;28;20025;-60
2023/05/04 11:40:25;;;;;;;9.95;8.18;;;24.60;1.00;;;;;;5037507;28;20045;-60
2023/05/04 11:42:56;;;;;;;7.90;7.15;;;24.90;1.00;;;;;;5031815;28;20457;-59
2023/05/04 11:45:23;;;;;;;10.38;8.07;;;25.40;1.00;;;;;;5033214;28;20037;-60
2023/05/04 11:47:50;;;;;;;9.65;7.57;;;26.20;1.00;;;;;;5032415;28;20124;-60
2023/05/04 11:50:19;;;;;;;10.02;9.02;;;27.50;1.00;;;;;;5033174;28;20037;-60
2023/05/04 11:52:45;;;;;;;9.15;8.35;;;27.90;1.00;;;;;;5029943;28;20013;-58
2023/05/04 11:55:23;;;;;;;8.50;7.75;;;27.10;1.00;;;;;;5032291;28;20040;-58
2023/05/04 11:57:57;;;;;;;8.15;7.43;;;30.80;1.00;;;;;;5028483;28;20095;-59
2023/05/04 12:00:40;;;;;;;8.45;7.20;;;33.60;99.90;;;;;;5028858;28;20041;-59
2023/05/04 12:03:33;;;;;;;8.45;7.63;;;36.60;99.90;;;;;;5021375;28;20029;-59
2023/05/04 12:06:00;;;;;;;10.18;9.18;;;37.80;99.90;;;;;;5030823;28;20081;-59
2023/05/04 12:08:30;;;;;;;10.30;8.82;;;36.80;99.90;;;;;;5032370;28;20033;-59
2023/05/04 12:11:15;;;;;;;11.27;8.95;;;37.80;99.90;;;;;;5031558;28;20038;-60
2023/05/04 12:13:45;;;;;;;10.45;9.60;;;39.40;99.90;;;;;;5032483;28;20038;-59
2023/05/04 12:16:16;;;;;;;9.30;8.55;;;41.00;99.90;;;;;;5031989;28;20025;-60
2023/05/04 12:18:44;;;;;;;10.43;9.50;;;42.20;99.90;;;;;;5030496;28;20399;-59
2023/05/04 12:21:12;;;;;;;8.85;8.05;;;42.70;99.90;;;;;;5032647;28;20030;-60
2023/05/04 12:23:39;;;;;;;9.18;8.27;;;43.30;99.90;;;;;;5030263;28;20026;-60
2023/05/04 12:26:06;;;;;;;8.90;8.10;;;43.70;99.90;;;;;;5032621;28;20144;-59
2023/05/04 12:28:56;;;;;;;10.15;8.32;;;44.00;99.90;;;;;;5032003;28;20364;-59
2023/05/04 12:31:23;;;;;;;7.95;7.25;;;43.40;99.90;;;;;;5028923;28;20108;-60
2023/05/04 12:33:49;;;;;;;8.25;7.65;;;42.20;99.90;;;;;;5031879;28;20056;-60
2023/05/04 12:36:15;;;;;;;11.80;10.80;;;40.70;99.90;;;;;;5032843;28;20025;-59
2023/05/04 12:38:41;;;;;;;9.95;9.15;;;39.50;99.90;;;;;;5045165;28;20402;-60
2023/05/04 12:41:10;;;;;;;10.30;9.60;;;39.80;99.90;;;;;;5031533;28;20022;-60
2023/05/04 12:43:36;;;;;;;11.35;10.23;;;40.80;99.90;;;;;;5031863;28;20022;-60
2023/05/04 12:46:02;;;;;;;10.43;9.30;;;43.10;99.90;;;;;;5030537;28;20541;-59
2023/05/04 12:48:31;;;;;;;10.48;9.50;;;44.10;99.90;;;;;;5031835;28;20075;-60
2023/05/04 12:50:57;;;;;;;9.35;8.50;;;43.30;99.90;;;;;;5032543;28;20029;-60
2023/05/04 12:53:26;;;;;;;9.07;8.38;;;42.90;99.90;;;;;;5031044;28;20117;-59
2023/05/04 12:55:52;;;;;;;9.80;9.02;;;43.10;99.90;;;;;;5031597;28;20026;-61